createdAt,value
2023-04-06T00:00:32.903Z,6.04
2023-04-06T00:02:59.931Z,6.08
2023-04-06T00:05:33.920Z,6.03
2023-04-06T00:08:00.735Z,5.98
2023-04-06T00:10:30.538Z,5.94
2023-04-06T00:12:58.406Z,5.95
2023-04-06T00:15:25.550Z,5.88
2023-04-06T00:17:57.677Z,5.86
2023-04-06T00:20:26.760Z,5.78
2023-04-06T00:22:53.439Z,5.76
2023-04-06T00:25:20.557Z,5.72
2023-04-06T00:27:47.291Z,5.71
2023-04-06T00:30:16.675Z,5.65
2023-04-06T00:32:45.713Z,5.60
2023-04-06T00:35:12.508Z,5.46
2023-04-06T00:37:44.053Z,5.30
2023-04-06T00:40:13.681Z,5.24
2023-04-06T00:42:40.647Z,5.18
2023-04-06T00:45:07.731Z,5.06
2023-04-06T00:47:34.621Z,4.98
2023-04-06T00:50:01.276Z,4.87
2023-04-06T00:52:27.915Z,4.81
2023-04-06T00:54:55.076Z,4.73
2023-04-06T00:57:22.976Z,4.61
2023-04-06T00:59:57.213Z,4.48
2023-04-06T01:02:27.105Z,4.42
2023-04-06T01:04:55.508Z,4.42
2023-04-06T01:07:28.017Z,4.45
2023-04-06T01:10:23.679Z,4.42
2023-04-06T01:12:55.464Z,4.38
2023-04-06T01:15:41.042Z,4.37
2023-04-06T01:18:12.991Z,4.35
2023-04-06T01:20:46.941Z,4.30
2023-04-06T01:23:15.691Z,4.31
2023-04-06T01:25:46.503Z,4.38
2023-04-06T01:28:15.499Z,4.35
2023-04-06T01:30:53.060Z,4.34
2023-04-06T01:33:38.752Z,4.35
2023-04-06T01:36:11.461Z,4.35
2023-04-06T01:38:40.868Z,4.33
2023-04-06T01:41:08.216Z,4.27
2023-04-06T01:43:46.449Z,4.11
2023-04-06T01:46:14.295Z,3.97
2023-04-06T01:48:43.295Z,3.90
2023-04-06T01:51:44.763Z,3.90
2023-04-06T01:54:13.801Z,3.79
2023-04-06T01:56:54.221Z,3.76
2023-04-06T01:59:43.665Z,3.69
2023-04-06T02:02:18.664Z,3.74
2023-04-06T02:04:54.567Z,3.80
2023-04-06T02:07:21.362Z,3.79
2023-04-06T02:09:48.069Z,3.71
2023-04-06T02:12:25.011Z,3.72
2023-04-06T02:14:52.185Z,3.78
2023-04-06T02:17:18.933Z,3.79
2023-04-06T02:19:46.579Z,3.68
2023-04-06T02:22:13.268Z,3.70
2023-04-06T02:24:40.016Z,3.68
2023-04-06T02:27:07.118Z,3.70
2023-04-06T02:29:34.183Z,3.71
2023-04-06T02:32:03.791Z,3.69
2023-04-06T02:34:33.306Z,3.72
2023-04-06T02:37:00.494Z,3.70
2023-04-06T02:39:30.442Z,3.66
2023-04-06T02:42:01.024Z,3.64
2023-04-06T02:44:27.699Z,3.57
2023-04-06T02:46:54.326Z,3.54
2023-04-06T02:49:25.191Z,3.48
2023-04-06T02:51:55.675Z,3.42
2023-04-06T02:54:26.696Z,3.33
2023-04-06T02:56:53.730Z,3.28
2023-04-06T02:59:28.195Z,3.19
2023-04-06T03:02:06.414Z,3.24
2023-04-06T03:04:36.439Z,3.32
2023-04-06T03:07:06.370Z,3.30
2023-04-06T03:09:38.285Z,3.26
2023-04-06T03:12:05.703Z,3.33
2023-04-06T03:14:42.417Z,3.32
2023-04-06T03:17:09.106Z,3.31
2023-04-06T03:19:38.679Z,3.26
2023-04-06T03:22:08.452Z,3.27
2023-04-06T03:24:35.795Z,3.23
2023-04-06T03:27:02.565Z,3.30
2023-04-06T03:29:29.469Z,3.25
2023-04-06T03:31:56.184Z,3.23
2023-04-06T03:34:39.792Z,3.18
2023-04-06T03:37:11.195Z,3.12
2023-04-06T03:39:45.293Z,3.20
2023-04-06T03:42:17.592Z,3.24
2023-04-06T03:44:53.974Z,3.02
2023-04-06T03:47:23.967Z,2.95
2023-04-06T03:49:54.160Z,3.07
2023-04-06T03:52:24.184Z,3.19
2023-04-06T03:54:54.733Z,3.23
2023-04-06T03:57:21.813Z,3.17
2023-04-06T03:59:48.529Z,2.97
2023-04-06T04:02:18.159Z,3.00
2023-04-06T04:04:44.918Z,2.90
2023-04-06T04:07:14.070Z,2.92
2023-04-06T04:09:43.064Z,2.96
2023-04-06T04:12:09.748Z,2.99
2023-04-06T04:14:36.463Z,2.88
2023-04-06T04:17:05.966Z,2.98
2023-04-06T04:19:33.015Z,2.87
2023-04-06T04:22:05.985Z,2.86
2023-04-06T04:24:35.298Z,2.84
2023-04-06T04:27:05.814Z,2.85
2023-04-06T04:29:36.852Z,2.92
2023-04-06T04:32:07.589Z,3.05
2023-04-06T04:34:34.501Z,3.15
2023-04-06T04:37:02.204Z,3.18
2023-04-06T04:39:46.364Z,3.06
2023-04-06T04:42:13.532Z,2.97
2023-04-06T04:44:45.757Z,3.04
2023-04-06T04:47:14.266Z,3.08
2023-04-06T04:49:45.280Z,3.14
2023-04-06T04:52:16.943Z,3.16
2023-04-06T04:55:06.276Z,3.18
2023-04-06T04:57:35.301Z,3.30
2023-04-06T05:00:05.316Z,3.41
2023-04-06T05:02:33.024Z,3.49
2023-04-06T05:05:26.094Z,3.53
2023-04-06T05:07:52.970Z,3.48
2023-04-06T05:10:38.372Z,3.48
2023-04-06T05:13:05.587Z,3.57
2023-04-06T05:15:35.727Z,3.74
2023-04-06T05:18:12.657Z,3.86
2023-04-06T05:20:39.947Z,4.03
2023-04-06T05:23:06.819Z,4.11
2023-04-06T05:25:34.797Z,4.08
2023-04-06T05:28:11.804Z,4.07
2023-04-06T05:30:39.458Z,4.21
2023-04-06T05:33:06.625Z,4.35
2023-04-06T05:35:48.911Z,4.48
2023-04-06T05:38:16.213Z,4.62
2023-04-06T05:40:48.487Z,4.66
2023-04-06T05:43:18.239Z,4.69
2023-04-06T05:45:51.803Z,4.82
2023-04-06T05:48:21.316Z,4.76
2023-04-06T05:50:50.546Z,4.55
2023-04-06T05:53:22.213Z,4.45
2023-04-06T05:55:57.109Z,4.44
2023-04-06T05:58:26.792Z,4.42
2023-04-06T06:00:58.908Z,4.45
2023-04-06T06:03:29.718Z,4.24
2023-04-06T06:06:01.648Z,4.30
2023-04-06T06:08:36.227Z,4.40
2023-04-06T06:11:07.067Z,4.43
2023-04-06T06:13:37.819Z,4.52
2023-04-06T06:16:06.345Z,4.68
2023-04-06T06:18:38.979Z,4.66
2023-04-06T06:21:06.349Z,4.72
2023-04-06T06:23:33.002Z,4.71
2023-04-06T06:26:00.418Z,4.82
2023-04-06T06:28:27.984Z,4.76
2023-04-06T06:30:56.995Z,4.74
2023-04-06T06:33:25.072Z,5.01
2023-04-06T06:35:53.947Z,5.28
2023-04-06T06:38:22.174Z,5.52
2023-04-06T06:40:50.681Z,5.56
2023-04-06T06:43:21.060Z,5.42
2023-04-06T06:45:56.714Z,5.58
2023-04-06T06:48:23.524Z,5.70
2023-04-06T06:50:52.983Z,5.78
2023-04-06T06:53:24.263Z,5.50
2023-04-06T06:55:51.007Z,5.53
2023-04-06T06:58:22.742Z,5.86
2023-04-06T07:00:49.490Z,6.08
2023-04-06T07:03:16.948Z,6.25
2023-04-06T07:05:54.127Z,6.34
2023-04-06T07:08:24.887Z,6.20
2023-04-06T07:10:53.429Z,6.18
2023-04-06T07:13:24.344Z,6.08
2023-04-06T07:15:53.560Z,5.94
2023-04-06T07:18:20.917Z,5.63
2023-04-06T07:20:47.928Z,5.66
2023-04-06T07:23:16.188Z,5.98
2023-04-06T07:25:45.748Z,6.31
2023-04-06T07:28:14.779Z,6.06
2023-04-06T07:30:44.491Z,5.90
2023-04-06T07:33:12.305Z,5.80
2023-04-06T07:35:40.465Z,5.74
2023-04-06T07:38:10.076Z,5.99
2023-04-06T07:40:36.863Z,6.15
2023-04-06T07:43:10.432Z,6.21
2023-04-06T07:45:42.568Z,6.10
2023-04-06T07:48:10.243Z,5.84
2023-04-06T07:50:37.439Z,5.93
2023-04-06T07:53:05.174Z,6.26
2023-04-06T07:55:31.829Z,6.65
2023-04-06T07:57:58.478Z,6.57
2023-04-06T08:00:28.075Z,6.42
2023-04-06T08:02:54.906Z,6.43
2023-04-06T08:05:21.675Z,6.38
2023-04-06T08:07:50.839Z,6.48
2023-04-06T08:10:17.633Z,6.44
2023-04-06T08:12:48.226Z,6.28
2023-04-06T08:15:19.867Z,6.36
2023-04-06T08:17:55.488Z,6.67
2023-04-06T08:20:25.088Z,6.83
2023-04-06T08:22:53.650Z,6.55
2023-04-06T08:25:20.749Z,6.60
2023-04-06T08:27:47.401Z,6.51
2023-04-06T08:30:17.073Z,6.76
2023-04-06T08:32:47.620Z,6.73
2023-04-06T08:35:19.815Z,6.68
2023-04-06T08:37:52.057Z,6.67
2023-04-06T08:40:22.058Z,6.88
2023-04-06T08:42:51.348Z,7.44
2023-04-06T08:45:22.450Z,7.90
2023-04-06T08:47:55.516Z,7.88
2023-04-06T08:50:25.608Z,8.14
2023-04-06T08:52:59.798Z,8.30
2023-04-06T08:55:27.071Z,8.48
2023-04-06T08:57:56.192Z,8.71
2023-04-06T09:00:27.920Z,8.70
2023-04-06T09:02:55.195Z,8.76
2023-04-06T09:05:22.298Z,8.60
2023-04-06T09:07:52.434Z,8.55
2023-04-06T09:10:24.565Z,8.63
2023-04-06T09:12:51.998Z,9.08
2023-04-06T09:15:24.403Z,9.33
2023-04-06T09:17:55.906Z,9.53
2023-04-06T09:20:30.373Z,9.76
2023-04-06T09:23:37.824Z,10.15
2023-04-06T09:26:10.013Z,10.47
2023-04-06T09:28:51.429Z,10.86
2023-04-06T09:31:26.896Z,10.96
2023-04-06T09:33:54.284Z,11.16
2023-04-06T09:36:30.380Z,11.38
2023-04-06T09:38:58.466Z,11.30
2023-04-06T09:41:56.578Z,11.54
2023-04-06T09:44:25.212Z,12.07
2023-04-06T09:47:00.868Z,12.27
2023-04-06T09:49:29.797Z,12.37
2023-04-06T09:52:21.848Z,12.50
2023-04-06T09:54:55.789Z,12.37
2023-04-06T09:57:40.503Z,12.17
2023-04-06T10:00:25.217Z,12.54
2023-04-06T10:03:02.091Z,12.92
2023-04-06T10:05:50.192Z,13.08
2023-04-06T10:08:44.880Z,13.12
2023-04-06T10:11:14.483Z,13.19
2023-04-06T10:13:47.878Z,13.18
2023-04-06T10:16:20.389Z,13.68
2023-04-06T10:18:56.627Z,13.68
2023-04-06T10:21:25.210Z,13.66
2023-04-06T10:23:58.427Z,13.95
2023-04-06T10:26:28.061Z,14.03
2023-04-06T10:28:55.812Z,14.16
2023-04-06T10:31:27.675Z,14.22
2023-04-06T10:33:59.646Z,14.03
2023-04-06T10:36:29.659Z,13.94
2023-04-06T10:39:02.370Z,14.03
2023-04-06T10:41:38.233Z,14.04
2023-04-06T10:44:05.144Z,13.93
2023-04-06T10:46:32.722Z,14.16
2023-04-06T10:49:01.930Z,14.31
2023-04-06T10:51:29.192Z,14.62
2023-04-06T10:53:56.237Z,14.53
2023-04-06T10:56:26.758Z,14.51
2023-04-06T10:58:54.078Z,14.31
2023-04-06T11:01:21.450Z,14.46
2023-04-06T11:03:48.871Z,14.26
2023-04-06T11:06:19.144Z,14.48
2023-04-06T11:08:45.881Z,14.53
2023-04-06T11:11:22.305Z,14.78
2023-04-06T11:13:52.334Z,15.04
2023-04-06T11:16:26.223Z,15.09
2023-04-06T11:19:05.401Z,15.19
2023-04-06T11:21:44.242Z,15.12
2023-04-06T11:24:12.100Z,14.86
2023-04-06T11:26:42.179Z,15.06
2023-04-06T11:29:11.139Z,15.09
2023-04-06T11:32:01.105Z,15.13
2023-04-06T11:34:29.379Z,15.40
2023-04-06T11:36:57.908Z,15.62
2023-04-06T11:39:25.877Z,15.76
2023-04-06T11:41:53.123Z,15.94
2023-04-06T11:44:41.075Z,15.92
2023-04-06T11:47:08.300Z,15.58
2023-04-06T11:49:38.329Z,15.65
2023-04-06T11:52:14.899Z,15.64
2023-04-06T11:54:42.510Z,15.72
2023-04-06T11:57:09.390Z,15.62
2023-04-06T11:59:36.898Z,15.25
2023-04-06T12:02:06.633Z,15.03
2023-04-06T12:04:33.412Z,14.87
2023-04-06T12:07:00.245Z,14.44
2023-04-06T12:09:27.054Z,14.14
2023-04-06T12:11:53.688Z,13.95
2023-04-06T12:14:25.106Z,14.01
2023-04-06T12:16:51.974Z,13.86
2023-04-06T12:19:18.594Z,14.04
2023-04-06T12:21:45.398Z,13.95
2023-04-06T12:24:12.045Z,13.99
2023-04-06T12:26:42.500Z,14.08
2023-04-06T12:29:09.457Z,14.01
2023-04-06T12:31:40.145Z,14.52
2023-04-06T12:34:09.350Z,15.18
2023-04-06T12:36:36.247Z,15.38
2023-04-06T12:39:07.848Z,15.27
2023-04-06T12:41:37.156Z,15.34
2023-04-06T12:44:03.913Z,15.10
2023-04-06T12:46:36.587Z,14.73
2023-04-06T12:49:04.361Z,14.40
2023-04-06T12:51:35.972Z,14.15
2023-04-06T12:54:05.410Z,13.96
2023-04-06T12:56:37.507Z,12.91
2023-04-06T12:59:04.375Z,12.72
2023-04-06T13:01:31.285Z,13.05
2023-04-06T13:04:00.933Z,13.16
2023-04-06T13:06:30.313Z,13.00
2023-04-06T13:08:57.021Z,12.78
2023-04-06T13:11:28.826Z,12.79
2023-04-06T13:13:57.906Z,12.87
2023-04-06T13:16:27.109Z,13.18
2023-04-06T13:18:56.244Z,13.31
2023-04-06T13:21:26.163Z,13.33
2023-04-06T13:23:55.750Z,13.34
2023-04-06T13:26:25.036Z,13.24
2023-04-06T13:28:51.689Z,13.10
2023-04-06T13:31:18.488Z,13.13
2023-04-06T13:33:47.641Z,13.04
2023-04-06T13:36:18.242Z,13.06
2023-04-06T13:38:47.809Z,13.09
2023-04-06T13:41:21.967Z,12.84
2023-04-06T13:43:48.841Z,12.69
2023-04-06T13:46:15.706Z,12.58
2023-04-06T13:48:42.728Z,12.59
2023-04-06T13:51:12.995Z,12.45
2023-04-06T13:53:41.590Z,12.68
2023-04-06T13:56:08.654Z,12.65
2023-04-06T13:58:37.104Z,11.48
2023-04-06T14:01:07.393Z,10.57
2023-04-06T14:03:34.644Z,10.47
2023-04-06T14:06:15.640Z,10.85
2023-04-06T14:08:49.792Z,11.02
2023-04-06T14:11:18.832Z,11.50
2023-04-06T14:13:45.870Z,11.80
2023-04-06T14:16:12.887Z,11.84
2023-04-06T14:18:39.761Z,11.97
2023-04-06T14:21:08.872Z,12.19
2023-04-06T14:23:38.090Z,12.43
2023-04-06T14:26:08.744Z,12.34
2023-04-06T14:28:38.425Z,12.31
2023-04-06T14:31:14.379Z,11.85
2023-04-06T14:33:41.617Z,10.94
2023-04-06T14:36:08.666Z,10.55
2023-04-06T14:38:35.577Z,10.13
2023-04-06T14:41:02.311Z,10.17
2023-04-06T14:43:31.594Z,10.13
2023-04-06T14:46:03.936Z,10.46
2023-04-06T14:48:30.754Z,10.75
2023-04-06T14:50:57.620Z,10.88
2023-04-06T14:53:24.921Z,10.94
2023-04-06T14:55:52.412Z,10.65
2023-04-06T14:58:25.405Z,9.94
2023-04-06T15:01:01.602Z,9.35
2023-04-06T15:03:28.566Z,9.10
2023-04-06T15:05:55.986Z,9.12
2023-04-06T15:08:25.125Z,9.38
2023-04-06T15:10:52.582Z,9.33
2023-04-06T15:13:19.363Z,9.11
2023-04-06T15:15:46.222Z,9.00
2023-04-06T15:18:12.930Z,9.13
2023-04-06T15:20:40.076Z,9.22
2023-04-06T15:23:06.695Z,9.33
2023-04-06T15:25:33.357Z,9.23
2023-04-06T15:28:00.542Z,9.09
2023-04-06T15:30:31.226Z,9.22
2023-04-06T15:33:04.894Z,9.11
2023-04-06T15:35:35.582Z,9.02
2023-04-06T15:38:02.905Z,9.01
2023-04-06T15:40:29.464Z,9.10
2023-04-06T15:42:58.647Z,9.41
2023-04-06T15:45:25.356Z,9.46
2023-04-06T15:47:51.959Z,9.46
2023-04-06T15:50:19.754Z,9.42
2023-04-06T15:52:48.864Z,9.21
2023-04-06T15:55:15.568Z,9.12
2023-04-06T15:57:44.697Z,9.14
2023-04-06T16:00:11.576Z,9.29
2023-04-06T16:02:38.402Z,9.48
2023-04-06T16:05:10.268Z,9.58
2023-04-06T16:07:37.107Z,9.73
2023-04-06T16:10:07.281Z,9.65
2023-04-06T16:12:34.189Z,9.58
2023-04-06T16:15:03.327Z,9.56
2023-04-06T16:17:30.173Z,9.61
2023-04-06T16:19:59.146Z,9.72
2023-04-06T16:22:28.924Z,9.63
2023-04-06T16:24:55.726Z,9.60
2023-04-06T16:27:22.515Z,9.36
2023-04-06T16:29:51.347Z,8.92
2023-04-06T16:32:20.465Z,8.83
2023-04-06T16:34:47.632Z,8.87
2023-04-06T16:37:16.482Z,8.78
2023-04-06T16:39:48.140Z,8.74
2023-04-06T16:42:19.595Z,8.66
2023-04-06T16:44:48.757Z,8.53
2023-04-06T16:47:16.629Z,8.59
2023-04-06T16:49:48.664Z,8.58
2023-04-06T16:52:15.931Z,8.57
2023-04-06T16:54:42.529Z,8.47
2023-04-06T16:57:09.258Z,8.12
2023-04-06T16:59:39.022Z,7.75
2023-04-06T17:02:05.711Z,7.51
2023-04-06T17:04:32.559Z,7.49
2023-04-06T17:06:59.242Z,7.41
2023-04-06T17:09:26.016Z,7.53
2023-04-06T17:11:58.117Z,7.73
2023-04-06T17:14:29.701Z,7.76
2023-04-06T17:16:59.581Z,7.44
2023-04-06T17:19:27.073Z,7.41
2023-04-06T17:21:56.129Z,7.55
2023-04-06T17:24:24.955Z,7.55
2023-04-06T17:26:54.125Z,7.55
2023-04-06T17:29:22.930Z,7.22
2023-04-06T17:31:51.858Z,7.26
2023-04-06T17:34:18.550Z,7.37
2023-04-06T17:36:50.129Z,7.36
2023-04-06T17:39:17.096Z,7.31
2023-04-06T17:41:43.965Z,7.17
2023-04-06T17:44:10.719Z,6.60
2023-04-06T17:46:39.839Z,6.65
2023-04-06T17:49:08.479Z,6.17
2023-04-06T17:51:38.833Z,5.91
2023-04-06T17:54:05.830Z,5.62
2023-04-06T17:56:32.437Z,5.57
2023-04-06T17:59:01.341Z,5.41
2023-04-06T18:01:28.050Z,5.45
2023-04-06T18:03:55.038Z,5.43
2023-04-06T18:06:25.670Z,5.52
2023-04-06T18:08:53.199Z,5.58
2023-04-06T18:11:21.617Z,5.75
2023-04-06T18:13:48.652Z,5.90
2023-04-06T18:16:20.157Z,6.03
2023-04-06T18:18:47.086Z,6.30
2023-04-06T18:21:13.827Z,6.45
2023-04-06T18:23:40.593Z,6.49
2023-04-06T18:26:10.422Z,6.28
2023-04-06T18:28:39.425Z,6.04
2023-04-06T18:31:06.077Z,6.01
2023-04-06T18:33:33.802Z,6.12
2023-04-06T18:36:00.467Z,5.98
2023-04-06T18:38:29.777Z,6.02
2023-04-06T18:40:56.533Z,5.87
2023-04-06T18:43:28.552Z,5.68
2023-04-06T18:45:55.782Z,5.57
2023-04-06T18:48:24.914Z,5.63
2023-04-06T18:50:57.722Z,5.71
2023-04-06T18:53:24.312Z,5.83
2023-04-06T18:55:51.908Z,5.71
2023-04-06T18:58:18.580Z,5.75
2023-04-06T19:00:45.411Z,5.77
2023-04-06T19:03:14.917Z,5.86
2023-04-06T19:05:42.083Z,5.70
2023-04-06T19:08:08.827Z,5.44
2023-04-06T19:10:36.574Z,5.42
2023-04-06T19:13:03.708Z,5.52
2023-04-06T19:15:30.438Z,5.52
2023-04-06T19:18:02.014Z,5.31
2023-04-06T19:20:28.604Z,5.22
2023-04-06T19:22:58.044Z,5.10
2023-04-06T19:25:24.803Z,5.11
2023-04-06T19:27:54.251Z,5.17
2023-04-06T19:30:20.976Z,5.36
2023-04-06T19:32:50.069Z,5.54
2023-04-06T19:35:16.713Z,5.66
2023-04-06T19:37:46.483Z,5.81
2023-04-06T19:40:16.971Z,5.95
2023-04-06T19:42:43.590Z,5.97
2023-04-06T19:45:11.298Z,5.90
2023-04-06T19:47:40.436Z,5.81
2023-04-06T19:50:09.000Z,5.83
2023-04-06T19:52:36.622Z,5.80
2023-04-06T19:55:04.036Z,5.80
2023-04-06T19:57:33.153Z,5.87
2023-04-06T20:00:09.728Z,5.97
2023-04-06T20:02:36.388Z,5.94
2023-04-06T20:05:05.458Z,6.01
2023-04-06T20:07:32.103Z,6.03
2023-04-06T20:09:58.768Z,6.01
2023-04-06T20:12:25.498Z,5.95
2023-04-06T20:14:54.766Z,5.93
2023-04-06T20:17:24.198Z,6.00
2023-04-06T20:19:54.035Z,5.99
2023-04-06T20:22:23.393Z,6.03
2023-04-06T20:24:52.501Z,5.99
2023-04-06T20:27:22.267Z,6.02
2023-04-06T20:29:49.006Z,6.04
2023-04-06T20:32:20.652Z,6.06
2023-04-06T20:34:47.952Z,6.02
2023-04-06T20:37:17.894Z,6.08
2023-04-06T20:39:48.368Z,6.05
2023-04-06T20:42:15.109Z,6.07
2023-04-06T20:44:41.841Z,6.06
2023-04-06T20:47:10.715Z,6.04
2023-04-06T20:49:40.205Z,5.99
2023-04-06T20:52:09.540Z,6.00
2023-04-06T20:54:36.284Z,5.91
2023-04-06T20:57:02.993Z,6.08
2023-04-06T20:59:29.779Z,6.01
2023-04-06T21:01:56.634Z,6.01
2023-04-06T21:04:23.520Z,5.97
2023-04-06T21:06:50.469Z,5.92
2023-04-06T21:09:20.202Z,5.89
2023-04-06T21:11:47.296Z,5.84
2023-04-06T21:14:19.525Z,5.95
2023-04-06T21:16:47.264Z,5.96
2023-04-06T21:19:13.823Z,5.82
2023-04-06T21:21:43.472Z,5.78
2023-04-06T21:24:12.426Z,5.75
2023-04-06T21:26:39.088Z,5.86
2023-04-06T21:29:05.842Z,5.87
2023-04-06T21:31:36.515Z,5.89
2023-04-06T21:34:03.259Z,6.01
2023-04-06T21:36:29.989Z,6.03
2023-04-06T21:38:56.586Z,6.11
2023-04-06T21:41:23.185Z,6.12
2023-04-06T21:43:49.809Z,6.14
2023-04-06T21:46:16.487Z,5.93
2023-04-06T21:48:43.096Z,5.88
2023-04-06T21:51:15.986Z,5.89
2023-04-06T21:53:44.932Z,6.05
2023-04-06T21:56:13.988Z,6.02
2023-04-06T21:58:41.810Z,6.17
2023-04-06T22:01:11.858Z,6.34
2023-04-06T22:03:39.061Z,6.34
2023-04-06T22:06:06.162Z,6.37
2023-04-06T22:08:34.297Z,6.04
2023-04-06T22:11:01.374Z,5.85
2023-04-06T22:13:30.105Z,5.82
2023-04-06T22:15:56.745Z,5.67
2023-04-06T22:18:26.095Z,5.74
2023-04-06T22:20:52.687Z,5.84
2023-04-06T22:23:21.162Z,5.97
2023-04-06T22:25:48.077Z,6.07
2023-04-06T22:28:14.743Z,5.93
2023-04-06T22:30:41.895Z,5.73
2023-04-06T22:33:11.149Z,5.79
2023-04-06T22:35:40.200Z,5.78
2023-04-06T22:38:06.747Z,5.80
2023-04-06T22:40:33.472Z,5.89
2023-04-06T22:43:02.426Z,6.00
2023-04-06T22:45:29.135Z,5.89
2023-04-06T22:47:55.849Z,5.88
2023-04-06T22:50:22.748Z,5.97
2023-04-06T22:52:49.461Z,5.98
2023-04-06T22:55:16.577Z,6.13
2023-04-06T22:57:43.238Z,6.11
2023-04-06T23:00:10.193Z,6.21
2023-04-06T23:02:36.912Z,6.23
2023-04-06T23:05:06.271Z,6.02
2023-04-06T23:07:32.987Z,6.01
2023-04-06T23:09:59.665Z,6.08
2023-04-06T23:12:26.486Z,6.16
2023-04-06T23:14:53.285Z,6.23
2023-04-06T23:17:22.315Z,6.19
2023-04-06T23:19:48.928Z,6.18
2023-04-06T23:22:15.634Z,6.20
2023-04-06T23:24:44.464Z,6.18
2023-04-06T23:27:13.774Z,6.30
2023-04-06T23:29:40.839Z,6.48
2023-04-06T23:32:07.594Z,6.47
2023-04-06T23:34:34.342Z,6.39
2023-04-06T23:37:02.951Z,6.43
2023-04-06T23:39:30.085Z,6.45
2023-04-06T23:41:57.828Z,6.41
2023-04-06T23:44:24.827Z,6.28
2023-04-06T23:46:52.150Z,6.28
2023-04-06T23:49:18.910Z,6.26
2023-04-06T23:51:48.046Z,6.19
2023-04-06T23:54:16.978Z,6.19
2023-04-06T23:56:43.558Z,6.27
2023-04-06T23:59:10.470Z,6.21
